Lawrence, KS (66049)

12:46 PM CDT on September 25, 2016 (GMT -0500)
Pioneer Ridge | | Change Station

Elev 1024 ft 38.97 °N, 95.28 °W | Updated 32 seconds ago

Overcast
Overcast
60.3 °F
Feels Like 60.3 °F
N
1.7
Wind Variable Wind from East

Today
High -- | Low -- °F
--% Chance of Precip.
Yesterday
High -- | Low -- °F
Precip. -- in
Pressure 30.18 in
Visibility 10.0 miles
Clouds Overcast 3000 ft
Dew Point 57 °F
Humidity 89%
Rainfall 0.40 in
Snow Depth Not available.
7:12 AM 7:12 PM
Waning Crescent, 26% visible
SPECI KLWC 251742Z AUTO 33005KT 10SM OVC030 17/14 A3018 RMK AO2 RAB05E24 P0001 T01670139 $
Pressure 30.18 in
Visibility 10.0 miles
Clouds Overcast 3000 ft
Dew Point 57 °F
Humidity 89%
Rainfall 0.40 in
Snow Depth Not available.
7:12 AM 7:12 PM
Waning Crescent, 26% visible
SPECI KLWC 251742Z AUTO 33005KT 10SM OVC030 17/14 A3018 RMK AO2 RAB05E24 P0001 T01670139 $

10-Day Weather Forecast

Almanac

Astronomy

Sep. 25, 2016 Rise Set
Actual Time
Civil Twilight
Nautical Twilight
Astronomical Twilight
Moon
Length of Visible Light
Length of Day
Tomorrow will be .
, % of the Moon is Illuminated

Today's Extremes

State Highs State Lows

Community

WunderPhotos

Upload Photos

1,941,674 photos uploaded!

WunderBlog® & News

Nearby

Air Quality

  Air Quality AQ Index Pollutant
Not available.

Snow Depth

Station Depth Elevation

Earthquake Activity

City Distance Mag. Time & Date
Minimum magnitude displayed is 2.5.

Coastal Water Temperatures

Place Temperature

Stations

Nearby Weather Stations

Station Location Temp. Windchill Dew Point Humidity Wind Precip. Elev Updated Type
                   

Watches & Warnings

There are currently no watches in effect.